Aeroporto :
LOGIN :

Iscrizione | Disclaimer

   EN    FR    IT 

 










Sommario :    VFR   VFR Marginale   IFR   IFR Intensivo   IFR Molto Intensivo
Visibilità : 
Base nubi : 
>= 8 km
>= 3000ft
5 / 8 km
1000 / 3000 ft
1500m / 5 km
500 / 1000 ft
800 / 1500m
200 / 500 ft
< 800m
< 200 ft
Simboli :   Temporali  Nebbia  Neve Forte  Precipitazioni Forti  Vento > 20 kt
SIGMETs :   Varie  Temporali  Ghiacco  Turbolenza  Onda orograficha  Ceneri Vulcaniche







- Altitudine del aeroporto : 124 ft
- Codice IATA : NHT
- Carte del aeroporto


EGWU - RAF Northolt

ULTIMO METAR :
  • 160822Z 21006KT 4000 BR SCT005 BKN021 09/08 Q1023 YLO1 BECMG 6000 HZ YLO1

METARs OBSOLETI :
  • 160750Z 22004KT 4000 BR FEW005 BKN021 08/08 Q1023 TEMPO SCT005
  • 160650Z 21005KT 4000 BR FEW005 BKN020 07/06 Q1022 TEMPO SCT005
  • 160550Z AUTO 20004KT 3500 // BKN025/// 05/05 Q1022

TAF TAF EGWU
Valido dal 16 a 09 ore il 17 a 03 ore UTC


160746Z 1609/1703 22008KT 6000 HZ BKN020
BECMG 1609/1611 9999 NSW
TEMPO 1609/1612 BKN010
BECMG 1612/1615 BKN008
BECMG 1615/1618 BKN006
PROB40 1618/1702 6000 HZ BKN004
Nessun NOTAM noto per questo aeroporto.



MetMap, La meteo Aeronautica in un colpo d'occhio ! - Copyright ORBIFLY Dicembre 2007 - Disclaimer

ORBIFLY MET'MAP TEAM :

Programmazione e sviluppo : Alexandra Zaïnal
Concezione e sviluppo : Baudouin d'Aumeries
Co-Programmazione e sviluppo : Marc-Olivier Méhu
Supporto tecnico e logistico : Manuel Goepfert
Aiuto per la traduzione : Arnaldo La Scala

Contatto : metmap@orbifly.com




FONTI E CREDITI :

   NOAA